Time;durP1;ratioP1;P1;durP2;ratioP2;P2;SDS_P1;SDS_P2;PMS_P1;PMS_P2;Temp;Humidity;BMP_temperature;BMP_pressure;BME280_temperature;BME280_humidity;BME280_pressure;Samples;Min_cycle;Max_cycle;Signal;HPM_P1;HPM_P2
2023/09/28 05:25:37;;;;;;;;;3.00;3.00;;;;;21.88;57.96;101410.16;5114295;27;45450;-71
2023/09/28 05:28:04;;;;;;;;;4.67;4.67;;;;;22.10;57.43;101418.00;5099033;27;46469;-70
2023/09/28 05:30:29;;;;;;;;;4.00;4.00;;;;;22.31;57.27;101421.53;5109737;27;45337;-71
2023/09/28 05:32:55;;;;;;;;;7.33;5.00;;;;;22.53;56.35;101428.47;5097695;27;45576;-71
2023/09/28 05:35:22;;;;;;;;;7.00;6.00;;;;;22.74;56.08;101419.34;5105483;27;46460;-71
2023/09/28 05:37:48;;;;;;;;;5.00;5.00;;;;;22.99;56.17;101436.78;5109473;27;46744;-71
2023/09/28 05:40:13;;;;;;;;;5.00;5.00;;;;;23.22;55.75;101433.69;5103102;27;46792;-71
2023/09/28 05:42:40;;;;;;;;;9.00;6.00;;;;;23.44;55.32;101431.63;5103431;27;45459;-72
2023/09/28 05:45:06;;;;;;;;;7.00;6.00;;;;;23.68;55.21;101439.19;5107287;27;46121;-71
2023/09/28 05:47:33;;;;;;;;;4.00;4.00;;;;;23.87;54.58;101433.78;5101216;27;45745;-71
2023/09/28 05:49:59;;;;;;;;;5.00;4.33;;;;;24.03;54.30;101441.22;5105978;27;45482;-71
2023/09/28 05:52:24;;;;;;;;;4.00;3.00;;;;;24.19;53.92;101452.25;5097009;27;45491;-72
2023/09/28 05:54:49;;;;;;;;;7.00;6.00;;;;;24.35;53.37;101458.81;5104762;27;45384;-72
2023/09/28 05:57:15;;;;;;;;;4.00;4.00;;;;;24.48;53.19;101470.09;5108480;27;45739;-71
2023/09/28 05:59:40;;;;;;;;;7.00;6.00;;;;;24.57;52.82;101472.91;5108873;27;45500;-70
2023/09/28 06:02:06;;;;;;;;;4.33;4.33;;;;;24.66;52.83;101461.09;5106034;27;45629;-70
2023/09/28 06:04:33;;;;;;;;;5.00;5.00;;;;;24.81;52.49;101436.06;5109740;27;46135;-71
2023/09/28 06:06:58;;;;;;;;;4.67;3.00;;;;;24.91;52.31;101441.41;5107520;27;45568;-70
2023/09/28 06:09:24;;;;;;;;;3.00;3.00;;;;;25.05;51.91;101451.66;5095665;27;45949;-71
2023/09/28 06:41:35;;;;;;;;;3.00;3.00;;;;;23.86;52.56;101480.88;5110187;27;45641;-72
2023/09/28 06:44:00;;;;;;;;;2.33;2.33;;;;;23.90;52.59;101484.97;5105863;27;45591;-70
2023/09/28 06:46:26;;;;;;;;;3.67;3.00;;;;;23.94;52.21;101479.09;5109902;27;45767;-72
2023/09/28 06:48:51;;;;;;;;;2.00;2.00;;;;;24.05;52.24;101488.00;5099823;27;45504;-73
2023/09/28 06:51:17;;;;;;;;;4.00;4.00;;;;;24.11;52.12;101484.69;5101378;27;46466;-73
2023/09/28 06:53:43;;;;;;;;;8.00;6.00;;;;;24.28;52.45;101501.97;5097338;27;45552;-73
2023/09/28 06:56:08;;;;;;;;;5.00;5.00;;;;;24.38;52.42;101491.06;5101986;27;46442;-72
2023/09/28 06:58:34;;;;;;;;;3.00;3.00;;;;;24.54;51.97;101503.06;5108890;27;45752;-72
2023/09/28 07:00:59;;;;;;;;;5.67;3.00;;;;;24.66;51.83;101498.22;5110022;27;45505;-72
2023/09/28 07:03:25;;;;;;;;;3.00;3.00;;;;;24.78;51.48;101496.97;5105434;27;45553;-71
2023/09/28 07:05:51;;;;;;;;;4.67;4.67;;;;;24.88;51.64;101487.91;5107331;27;45834;-72
2023/09/28 07:08:17;;;;;;;;;3.67;3.67;;;;;25.02;50.87;101491.88;5100031;27;45497;-71
2023/09/28 07:10:42;;;;;;;;;4.00;3.00;;;;;25.11;51.01;101496.34;5102420;27;46377;-72
2023/09/28 07:13:08;;;;;;;;;2.00;2.00;;;;;25.15;50.30;101483.28;5099783;27;45429;-73
2023/09/28 07:15:34;;;;;;;;;5.00;4.00;;;;;25.26;50.52;101489.28;5094655;27;45540;-72
2023/09/28 07:18:00;;;;;;;;;2.00;2.00;;;;;25.35;50.09;101492.91;5103937;27;45670;-73
2023/09/28 07:20:26;;;;;;;;;6.33;3.33;;;;;25.42;50.45;101498.53;5107806;27;45877;-73
2023/09/28 07:22:52;;;;;;;;;5.33;3.67;;;;;25.50;49.76;101489.59;5099271;27;46299;-72
2023/09/28 07:25:19;;;;;;;;;4.00;3.00;;;;;25.55;49.50;101495.41;5107925;27;45589;-72
2023/09/28 07:27:45;;;;;;;;;4.00;4.00;;;;;25.63;49.19;101505.47;5101839;27;45426;-72
2023/09/28 07:30:11;;;;;;;;;3.00;3.00;;;;;25.68;49.34;101515.81;5101079;27;45438;-71
2023/09/28 07:32:38;;;;;;;;;2.00;2.00;;;;;25.68;49.36;101521.25;5101914;27;45493;-72
2023/09/28 07:35:04;;;;;;;;;3.67;3.67;;;;;25.80;49.06;101541.72;5108398;27;45534;-72
2023/09/28 07:37:30;;;;;;;;;6.33;5.00;;;;;25.85;49.18;101552.94;5110330;27;45631;-71
2023/09/28 07:39:56;;;;;;;;;4.00;4.00;;;;;25.91;48.88;101565.00;5108303;27;46066;-73
2023/09/28 07:42:26;;;;;;;;;3.67;3.67;;;;;25.92;48.49;101558.56;5109981;27;45726;-72
2023/09/28 07:44:51;;;;;;;;;4.00;4.00;;;;;25.98;48.79;101560.63;5102416;27;45492;-71
2023/09/28 07:47:21;;;;;;;;;4.00;4.00;;;;;26.01;48.27;101562.16;5109254;27;45461;-71
2023/09/28 07:49:47;;;;;;;;;0.33;0.33;;;;;25.99;48.51;101556.03;5103897;27;45880;-72
2023/09/28 07:52:12;;;;;;;;;3.00;3.00;;;;;26.04;48.19;101557.22;5100025;27;45565;-71
2023/09/28 07:54:38;;;;;;;;;3.33;3.33;;;;;26.08;47.75;101557.78;5088804;27;45427;-70
2023/09/28 07:57:04;;;;;;;;;3.67;3.00;;;;;26.12;47.13;101566.44;5093810;27;45584;-70
2023/09/28 07:59:33;;;;;;;;;2.33;2.33;;;;;26.15;47.13;101566.09;5094725;27;45451;-71
2023/09/28 08:01:59;;;;;;;;;3.67;2.00;;;;;26.16;46.61;101555.03;5087748;27;45586;-71
2023/09/28 08:04:25;;;;;;;;;3.33;3.00;;;;;26.16;46.85;101552.31;5089013;27;45412;-72
2023/09/28 08:06:51;;;;;;;;;3.00;3.00;;;;;26.16;46.47;101562.38;5094489;27;45505;-70
2023/09/28 08:09:19;;;;;;;;;4.67;1.67;;;;;26.18;45.54;101563.91;5093219;27;46937;-71
2023/09/28 08:11:45;;;;;;;;;1.67;1.00;;;;;26.16;45.41;101563.22;5085906;27;45465;-71
2023/09/28 08:14:15;;;;;;;;;3.33;2.67;;;;;26.17;45.64;101567.63;5093394;27;45384;-71
2023/09/28 08:16:41;;;;;;;;;3.67;2.00;;;;;26.18;45.03;101568.50;5077483;27;45557;-71
2023/09/28 08:19:06;;;;;;;;;3.33;2.33;;;;;26.22;45.35;101571.72;5092288;27;46545;-71
2023/09/28 08:21:32;;;;;;;;;1.67;1.67;;;;;26.20;45.59;101566.47;5089761;27;45511;-71
2023/09/28 08:23:58;;;;;;;;;5.00;3.00;;;;;26.22;45.30;101569.00;5093271;27;45860;-71
2023/09/28 08:26:23;;;;;;;;;4.00;2.33;;;;;26.23;44.75;101574.28;5095130;27;45481;-72
2023/09/28 08:28:49;;;;;;;;;1.67;1.67;;;;;26.25;45.07;101585.03;5081238;27;45330;-71
2023/09/28 08:31:14;;;;;;;;;3.33;3.33;;;;;26.22;44.37;101575.31;5094068;27;58218;-71
2023/09/28 08:33:40;;;;;;;;;1.33;1.33;;;;;26.26;44.78;101586.72;5094553;27;45510;-71
2023/09/28 08:36:08;;;;;;;;;3.67;1.67;;;;;26.28;44.30;101590.16;5093128;27;45414;-72
2023/09/28 08:38:33;;;;;;;;;5.67;2.00;;;;;26.27;44.34;101591.16;5093973;27;46187;-72
2023/09/28 08:41:00;;;;;;;;;1.33;1.00;;;;;26.28;44.54;101603.75;5094408;27;45796;-72
2023/09/28 08:43:30;;;;;;;;;3.00;3.00;;;;;26.27;44.17;101602.03;5094631;27;45434;-70
2023/09/28 08:45:57;;;;;;;;;5.33;2.67;;;;;26.28;44.09;101593.72;5093858;27;45652;-72
2023/09/28 08:48:27;;;;;;;;;5.00;2.00;;;;;26.29;44.15;101595.41;5092570;27;45434;-70
2023/09/28 08:50:59;;;;;;;;;4.00;4.00;;;;;26.31;43.85;101585.22;5093322;27;45558;-71
2023/09/28 08:53:26;;;;;;;;;2.00;2.00;;;;;26.31;43.83;101587.94;5088712;27;45613;-71
2023/09/28 08:55:52;;;;;;;;;2.67;2.67;;;;;26.30;43.77;101590.81;5094228;27;45677;-71
2023/09/28 08:58:19;;;;;;;;;2.67;2.67;;;;;26.36;43.90;101601.03;5093575;27;48224;-71
2023/09/28 09:00:44;;;;;;;;;4.00;4.00;;;;;26.36;43.46;101592.03;5093992;27;45382;-71
2023/09/28 09:03:12;;;;;;;;;3.00;3.00;;;;;26.39;44.05;101588.97;5082026;27;47108;-70
2023/09/28 09:05:40;;;;;;;;;2.67;2.00;;;;;26.40;44.01;101590.69;5092385;27;45396;-71
2023/09/28 09:08:06;;;;;;;;;3.67;2.00;;;;;26.39;43.93;101580.78;5081628;27;45477;-71
2023/09/28 09:10:31;;;;;;;;;1.00;1.00;;;;;26.39;43.73;101565.31;5081544;27;45459;-71
2023/09/28 09:12:57;;;;;;;;;3.67;3.00;;;;;26.41;43.16;101560.56;5093289;27;45750;-69
2023/09/28 09:15:22;;;;;;;;;3.00;3.00;;;;;26.42;42.70;101559.56;5091373;27;45860;-71
2023/09/28 09:17:48;;;;;;;;;4.00;2.67;;;;;26.43;42.99;101553.09;5086252;27;45615;-72
2023/09/28 09:20:13;;;;;;;;;1.00;1.00;;;;;26.43;43.97;101555.81;5094426;27;45628;-72
2023/09/28 09:22:39;;;;;;;;;2.33;2.33;;;;;26.49;43.92;101562.47;5094417;27;45569;-72
2023/09/28 09:25:05;;;;;;;;;2.33;2.00;;;;;26.51;44.10;101570.44;5085241;27;45425;-71
2023/09/28 09:27:31;;;;;;;;;3.00;1.00;;;;;26.51;44.50;101563.13;5085049;27;45916;-73
2023/09/28 09:30:10;;;;;;;;;3.67;2.33;;;;;26.56;44.25;101565.31;5092680;27;45482;-72
2023/09/28 09:32:37;;;;;;;;;1.33;1.33;;;;;26.55;44.82;101563.63;5093030;27;45591;-73
2023/09/28 09:35:04;;;;;;;;;4.67;3.67;;;;;26.53;44.69;101566.53;5086592;27;45928;-73
2023/09/28 09:37:30;;;;;;;;;3.33;3.00;;;;;26.58;44.92;101576.91;5103960;27;46618;-73
2023/09/28 09:40:10;;;;;;;;;3.67;2.00;;;;;26.60;44.65;101576.75;5091110;27;45911;-73
2023/09/28 09:42:35;;;;;;;;;3.00;3.00;;;;;26.62;44.36;101577.41;5081856;27;45921;-72
2023/09/28 09:45:01;;;;;;;;;4.67;4.67;;;;;26.61;45.00;101590.19;5092126;27;45439;-72
2023/09/28 09:47:26;;;;;;;;;3.00;3.00;;;;;26.61;45.37;101579.31;5097245;27;55803;-73
2023/09/28 09:49:53;;;;;;;;;4.00;4.00;;;;;26.65;44.91;101577.94;5092276;27;45785;-71
2023/09/28 09:52:19;;;;;;;;;3.33;2.00;;;;;26.64;44.57;101569.97;5087146;27;45443;-71
2023/09/28 09:54:46;;;;;;;;;6.00;6.00;;;;;26.65;44.84;101577.94;5090235;27;45414;-72
2023/09/28 09:57:14;;;;;;;;;4.67;4.67;;;;;26.69;45.45;101587.47;5091545;27;46142;-73
2023/09/28 09:59:46;;;;;;;;;7.00;4.67;;;;;26.70;45.00;101588.31;5093137;27;45564;-72
2023/09/28 10:02:22;;;;;;;;;5.67;3.00;;;;;26.72;44.60;101596.34;5093028;27;45474;-72
2023/09/28 10:04:51;;;;;;;;;4.00;3.00;;;;;26.74;45.46;101586.09;5080241;27;45359;-72
2023/09/28 10:07:18;;;;;;;;;2.33;2.33;;;;;26.71;45.49;101584.56;5090289;27;45466;-72
2023/09/28 10:09:44;;;;;;;;;4.33;3.33;;;;;26.73;44.97;101587.97;5090383;27;45972;-72
2023/09/28 10:12:11;;;;;;;;;4.00;3.00;;;;;26.75;44.96;101588.66;5094146;27;45533;-72
2023/09/28 10:14:38;;;;;;;;;1.33;1.33;;;;;26.75;45.67;101591.38;5090568;27;45359;-72
2023/09/28 10:17:04;;;;;;;;;5.00;3.00;;;;;26.77;45.00;101574.88;5097816;27;46375;-72
2023/09/28 10:19:30;;;;;;;;;2.67;2.00;;;;;26.78;45.31;101579.31;5095335;27;45481;-72
2023/09/28 10:21:56;;;;;;;;;4.33;2.67;;;;;26.79;45.51;101564.66;5092190;27;45641;-72
2023/09/28 10:24:30;;;;;;;;;5.00;3.00;;;;;26.79;45.51;101568.25;5090772;27;45753;-72
2023/09/28 10:26:55;;;;;;;;;2.33;2.33;;;;;26.79;44.88;101556.50;5079917;27;45616;-72
2023/09/28 10:29:23;;;;;;;;;2.00;2.00;;;;;26.78;45.60;101552.94;5084001;27;46047;-72
2023/09/28 10:31:51;;;;;;;;;4.00;2.00;;;;;26.84;45.64;101548.66;5090834;27;45526;-73
2023/09/28 10:34:21;;;;;;;;;3.00;2.67;;;;;26.82;45.27;101553.44;5081352;27;45762;-71
2023/09/28 10:37:10;;;;;;;;;2.00;2.00;;;;;26.84;45.59;101556.81;5085769;27;45949;-71
2023/09/28 10:39:36;;;;;;;;;2.33;2.33;;;;;26.82;45.38;101548.81;5085703;27;45466;-72
2023/09/28 10:42:10;;;;;;;;;5.67;3.33;;;;;26.83;45.62;101544.22;5091653;27;45383;-71
2023/09/28 10:44:46;;;;;;;;;2.67;2.67;;;;;26.81;45.21;101547.13;5091356;27;45563;-71
2023/09/28 10:47:11;;;;;;;;;4.00;3.33;;;;;26.84;45.57;101552.25;5083343;27;45463;-72
2023/09/28 10:49:36;;;;;;;;;1.33;1.33;;;;;26.84;45.78;101554.97;5086489;27;55234;-71
2023/09/28 10:52:02;;;;;;;;;4.33;3.00;;;;;26.86;44.94;101543.91;5083825;27;47147;-72
2023/09/28 10:54:27;;;;;;;;;4.00;2.33;;;;;26.87;44.91;101544.72;5082073;27;45427;-72
2023/09/28 10:56:53;;;;;;;;;4.67;3.33;;;;;26.89;45.00;101534.53;5089171;27;45910;-71
2023/09/28 10:59:19;;;;;;;;;2.00;2.00;;;;;26.91;45.66;101529.75;5088550;27;45492;-72
2023/09/28 11:01:45;;;;;;;;;4.00;4.00;;;;;26.94;45.49;101532.19;5084787;27;45464;-72
2023/09/28 11:04:15;;;;;;;;;4.00;2.67;;;;;26.96;45.28;101533.69;5082619;27;45768;-72
2023/09/28 11:06:43;;;;;;;;;2.00;2.00;;;;;26.98;45.32;101535.41;5082175;27;45605;-73
2023/09/28 11:09:09;;;;;;;;;2.00;2.00;;;;;27.01;44.96;101538.63;5084062;27;45737;-70
2023/09/28 11:11:38;;;;;;;;;3.67;2.33;;;;;27.00;45.52;101531.47;5085846;27;45476;-71
2023/09/28 11:14:07;;;;;;;;;5.67;4.00;;;;;27.03;44.39;101525.69;5086712;27;45752;-71
2023/09/28 11:16:35;;;;;;;;;6.00;3.00;;;;;27.03;43.30;101522.97;5083610;27;45389;-71
2023/09/28 11:19:01;;;;;;;;;6.00;2.67;;;;;27.03;44.62;101530.28;5086341;27;45575;-71
2023/09/28 11:21:29;;;;;;;;;5.00;2.00;;;;;27.04;44.80;101530.09;5093071;27;45414;-71
2023/09/28 11:23:54;;;;;;;;;2.67;2.00;;;;;27.01;45.00;101521.44;5083456;27;47162;-71
2023/09/28 11:26:21;;;;;;;;;2.00;2.00;;;;;27.02;44.24;101520.41;5089642;27;45343;-73
2023/09/28 11:28:48;;;;;;;;;2.67;1.00;;;;;27.02;43.78;101518.53;5082024;27;45584;-72
2023/09/28 11:31:14;;;;;;;;;4.00;2.67;;;;;27.02;43.91;101517.69;5085209;27;45409;-73
2023/09/28 11:33:42;;;;;;;;;2.00;1.00;;;;;26.99;43.92;101512.56;5083507;27;45635;-71
2023/09/28 11:36:21;;;;;;;;;3.00;2.67;;;;;27.00;43.21;101512.41;5094817;27;46397;-72
2023/09/28 11:38:48;;;;;;;;;3.00;3.00;;;;;26.98;43.80;101494.53;5083451;27;45910;-73
2023/09/28 11:41:14;;;;;;;;;4.50;4.00;;;;;26.98;44.20;101505.44;5093733;27;45692;-70
2023/09/28 11:43:47;;;;;;;;;3.00;2.67;;;;;26.96;43.52;101497.44;5094956;27;45486;-70
2023/09/28 11:46:17;;;;;;;;;2.00;2.00;;;;;26.96;43.74;101495.56;5095835;27;47165;-70
2023/09/28 11:48:43;;;;;;;;;2.00;2.00;;;;;26.94;43.33;101494.88;5094457;27;45726;-70
2023/09/28 11:51:09;;;;;;;;;3.33;2.33;;;;;26.93;43.35;101492.31;5088806;27;45453;-70
2023/09/28 11:53:38;;;;;;;;;3.00;3.00;;;;;26.91;43.68;101492.47;5093604;27;45424;-73
2023/09/28 11:56:03;;;;;;;;;3.67;2.00;;;;;26.87;44.11;101496.56;5091277;27;46058;-73
2023/09/28 11:58:33;;;;;;;;;2.00;2.00;;;;;26.91;43.89;101497.94;5093443;27;45516;-72
2023/09/28 12:00:58;;;;;;;;;2.00;2.00;;;;;26.88;43.23;101492.81;5088955;27;45562;-72
2023/09/28 12:03:24;;;;;;;;;3.67;2.00;;;;;26.89;43.57;101494.50;5093247;27;45561;-69
2023/09/28 12:05:49;;;;;;;;;3.00;1.00;;;;;26.88;43.15;101501.00;5093045;27;46016;-71
2023/09/28 12:08:15;;;;;;;;;3.00;3.00;;;;;26.88;43.49;101500.13;5091010;27;45591;-71
2023/09/28 12:10:40;;;;;;;;;2.00;2.00;;;;;26.87;43.96;101502.03;5081421;27;45437;-71
2023/09/28 12:13:06;;;;;;;;;1.00;1.00;;;;;26.87;43.79;101490.25;5096132;27;45707;-73
2023/09/28 12:15:32;;;;;;;;;1.33;1.33;;;;;26.87;42.94;101479.38;5085873;27;45684;-73
2023/09/28 12:17:58;;;;;;;;;2.67;2.00;;;;;26.86;43.70;101489.44;5081923;27;45507;-73
2023/09/28 12:20:24;;;;;;;;;3.00;2.67;;;;;26.84;42.91;101481.44;5092642;27;45545;-73
2023/09/28 12:22:51;;;;;;;;;3.00;3.00;;;;;26.85;43.50;101474.09;5095334;27;45446;-72
2023/09/28 12:25:16;;;;;;;;;2.00;2.00;;;;;26.90;42.82;101481.75;5093375;27;45520;-72
2023/09/28 12:27:44;;;;;;;;;2.67;2.00;;;;;26.92;43.25;101476.97;5094848;27;45600;-72
2023/09/28 12:30:12;;;;;;;;;2.67;2.33;;;;;26.92;43.08;101479.69;5091492;27;45414;-72
2023/09/28 12:32:38;;;;;;;;;3.33;2.00;;;;;26.94;42.55;101483.16;5095179;27;45465;-72
2023/09/28 12:35:07;;;;;;;;;4.00;1.33;;;;;26.94;42.44;101478.53;5091926;27;46486;-73
2023/09/28 12:37:35;;;;;;;;;3.67;3.00;;;;;26.94;42.31;101483.16;5092212;27;45451;-73
2023/09/28 12:40:03;;;;;;;;;1.00;1.00;;;;;26.96;42.37;101478.38;5094300;27;45693;-72
2023/09/28 12:42:29;;;;;;;;;2.00;1.00;;;;;26.98;42.81;101483.63;5090243;27;45569;-72
2023/09/28 12:44:54;;;;;;;;;6.00;3.00;;;;;27.00;42.54;101485.16;5093763;27;54089;-73
2023/09/28 12:47:20;;;;;;;;;2.00;2.00;;;;;27.00;42.28;101477.00;5091680;27;57204;-72
2023/09/28 12:49:46;;;;;;;;;2.00;2.00;;;;;27.02;42.61;101477.66;5089709;27;45572;-73
2023/09/28 12:52:12;;;;;;;;;2.00;1.00;;;;;27.03;41.98;101467.63;5095007;27;45605;-73
2023/09/28 12:54:37;;;;;;;;;1.33;1.00;;;;;27.02;42.12;101468.66;5093804;27;46028;-73
2023/09/28 12:57:03;;;;;;;;;4.33;3.33;;;;;26.98;42.49;101462.72;5091652;27;45465;-73
2023/09/28 12:59:28;;;;;;;;;1.00;1.00;;;;;26.99;41.87;101463.53;5092576;27;45520;-73
2023/09/28 13:01:53;;;;;;;;;4.00;3.00;;;;;27.01;42.38;101472.41;5087433;27;45583;-74
2023/09/28 13:04:19;;;;;;;;;2.00;2.00;;;;;27.04;42.52;101458.41;5092886;27;45859;-74
2023/09/28 13:06:44;;;;;;;;;3.67;2.00;;;;;27.06;42.36;101462.66;5088836;27;45482;-75
2023/09/28 13:09:09;;;;;;;;;2.00;2.00;;;;;27.11;42.41;101464.88;5087584;27;45739;-73
2023/09/28 13:11:35;;;;;;;;;2.00;2.00;;;;;27.12;42.21;101458.41;5094245;27;45448;-73
2023/09/28 13:14:01;;;;;;;;;3.33;1.33;;;;;27.14;42.86;101463.69;5074460;27;45399;-73
2023/09/28 13:16:28;;;;;;;;;3.00;2.00;;;;;27.18;42.22;101456.84;5094857;27;45305;-74
2023/09/28 13:18:59;;;;;;;;;1.67;1.67;;;;;27.16;41.60;101448.00;5089737;27;45512;-72
2023/09/28 13:21:24;;;;;;;;;4.33;3.00;;;;;27.20;41.94;101458.38;5092238;27;45421;-72
2023/09/28 13:23:50;;;;;;;;;4.00;2.00;;;;;27.21;41.94;101461.94;5089058;27;45869;-74
2023/09/28 13:26:15;;;;;;;;;4.33;3.00;;;;;27.17;41.99;101446.97;5094666;27;45370;-73
2023/09/28 13:28:40;;;;;;;;;2.00;2.00;;;;;27.23;41.34;101460.72;5087970;27;45701;-73
2023/09/28 13:31:07;;;;;;;;;5.00;3.00;;;;;27.23;41.85;101455.28;5094348;27;45338;-71
2023/09/28 13:33:38;;;;;;;;;3.33;3.00;;;;;27.22;41.51;101455.47;5091756;27;47292;-71
2023/09/28 13:36:06;;;;;;;;;5.00;3.00;;;;;27.23;41.89;101455.28;5089233;27;45512;-72
2023/09/28 13:38:35;;;;;;;;;3.67;2.67;;;;;27.25;41.51;101451.56;5078709;27;45392;-72
2023/09/28 13:41:00;;;;;;;;;3.00;2.67;;;;;27.23;41.66;101441.66;5089913;27;45565;-73
2023/09/28 13:43:26;;;;;;;;;2.33;2.33;;;;;27.26;42.09;101434.16;5092497;27;45619;-71
2023/09/28 13:45:51;;;;;;;;;3.33;1.67;;;;;27.25;41.25;101430.56;5093316;27;45404;-72
2023/09/28 13:48:17;;;;;;;;;5.00;3.33;;;;;27.25;41.96;101425.13;5081950;27;45548;-72
2023/09/28 13:50:44;;;;;;;;;3.00;2.00;;;;;27.23;41.21;101425.31;5092248;27;52404;-73
2023/09/28 13:53:10;;;;;;;;;4.00;3.00;;;;;27.27;40.95;101427.69;5092079;27;45599;-71
2023/09/28 13:55:35;;;;;;;;;4.67;2.67;;;;;27.27;41.61;101428.53;5088491;27;45647;-72
2023/09/28 13:58:01;;;;;;;;;2.67;2.67;;;;;27.27;39.83;101423.09;5088113;27;45771;-72
2023/09/28 14:02:54;;;;;;;;;3.33;1.33;;;;;27.27;40.57;101427.69;5092128;27;46284;-72
2023/09/28 14:05:19;;;;;;;;;3.00;3.00;;;;;27.26;41.19;101423.25;5086703;27;45521;-72
2023/09/28 14:07:45;;;;;;;;;7.00;3.00;;;;;27.26;40.98;101420.53;5090159;27;45475;-71
2023/09/28 14:10:11;;;;;;;;;13.00;7.67;;;;;27.26;41.60;101417.81;5091735;27;45584;-72
2023/09/28 14:12:36;;;;;;;;;3.67;3.00;;;;;27.25;41.50;101416.13;5092070;27;45965;-72
2023/09/28 14:15:01;;;;;;;;;3.33;3.00;;;;;27.25;40.91;101418.84;5086599;27;45562;-73
2023/09/28 14:17:27;;;;;;;;;7.67;6.00;;;;;27.24;41.62;101407.09;5089803;27;45845;-71
2023/09/28 14:19:52;;;;;;;;;5.00;4.67;;;;;27.22;41.23;101403.72;5092194;27;45756;-73
2023/09/28 14:22:17;;;;;;;;;13.00;8.00;;;;;27.23;41.32;101405.41;5091810;27;50619;-72
2023/09/28 14:24:43;;;;;;;;;12.67;10.00;;;;;27.22;40.24;101411.88;5081146;27;45933;-72
2023/09/28 14:27:09;;;;;;;;;6.67;6.67;;;;;27.19;40.98;101407.63;5086202;27;45568;-73
2023/09/28 14:29:37;;;;;;;;;9.67;6.00;;;;;27.24;41.13;101407.09;5085741;27;45518;-72
2023/09/28 14:32:03;;;;;;;;;7.00;6.33;;;;;27.25;41.38;101405.22;5081470;27;46231;-72
2023/09/28 14:34:28;;;;;;;;;5.33;4.00;;;;;27.25;40.72;101414.22;5078393;27;45660;-73
2023/09/28 14:36:54;;;;;;;;;3.33;3.33;;;;;27.25;40.86;101403.34;5087742;27;48851;-72
2023/09/28 14:39:20;;;;;;;;;7.67;4.00;;;;;27.26;40.86;101405.03;5078200;27;53951;-71
2023/09/28 14:41:45;;;;;;;;;3.00;3.00;;;;;27.27;41.14;101414.06;5090777;27;46818;-72
2023/09/28 14:44:11;;;;;;;;;7.33;5.00;;;;;27.27;39.95;101411.34;5079061;27;54718;-72
2023/09/28 14:46:36;;;;;;;;;7.00;5.33;;;;;27.27;39.82;101406.75;5086474;27;45425;-72
2023/09/28 14:49:02;;;;;;;;;6.00;4.00;;;;;27.25;40.08;101403.34;5090382;27;45441;-73
2023/09/28 14:51:27;;;;;;;;;5.00;5.00;;;;;27.26;40.11;101405.03;5087643;27;45815;-73
2023/09/28 14:53:52;;;;;;;;;6.67;3.67;;;;;27.26;40.16;101405.03;5081938;27;45644;-73
2023/09/28 14:56:18;;;;;;;;;4.33;2.33;;;;;27.26;40.63;101405.03;5093162;27;45985;-73
2023/09/28 14:58:43;;;;;;;;;3.67;3.00;;;;;27.28;40.87;101400.25;5087032;27;45512;-73
2023/09/28 15:01:08;;;;;;;;;3.33;3.00;;;;;27.28;40.76;101402.97;5093381;27;46029;-73
2023/09/28 15:03:34;;;;;;;;;3.33;2.67;;;;;27.26;41.22;101398.75;5085332;27;50117;-73
2023/09/28 15:06:00;;;;;;;;;3.00;3.00;;;;;27.23;40.27;101402.66;5089630;27;45557;-73
2023/09/28 15:08:26;;;;;;;;;4.00;3.00;;;;;27.25;40.71;101400.59;5093190;27;45778;-73
2023/09/28 15:10:52;;;;;;;;;4.00;3.00;;;;;27.24;40.33;101393.47;5091985;27;46182;-73
2023/09/28 15:13:18;;;;;;;;;4.33;2.33;;;;;27.21;40.35;101389.22;5086622;27;45379;-73
2023/09/28 15:15:43;;;;;;;;;6.00;3.67;;;;;27.19;40.78;101385.84;5089948;27;45367;-73
2023/09/28 15:18:08;;;;;;;;;3.33;1.67;;;;;27.19;40.82;101383.13;5092616;27;45647;-73
2023/09/28 15:20:35;;;;;;;;;3.33;2.67;;;;;27.16;40.73;101379.88;5091705;27;45656;-73
2023/09/28 15:23:01;;;;;;;;;3.00;3.00;;;;;27.17;40.48;101376.97;5089690;27;45831;-73
2023/09/28 15:25:26;;;;;;;;;3.00;3.00;;;;;27.17;40.10;101373.38;5090665;27;45576;-72
2023/09/28 15:27:52;;;;;;;;;4.00;4.00;;;;;27.16;39.99;101374.41;5095241;27;45394;-73
2023/09/28 15:30:18;;;;;;;;;2.00;2.00;;;;;27.14;39.86;101369.16;5096367;27;45736;-72
2023/09/28 15:32:45;;;;;;;;;3.00;3.00;;;;;27.12;40.52;101367.63;5092838;27;45786;-72
2023/09/28 15:35:13;;;;;;;;;5.00;2.67;;;;;27.12;40.25;101365.75;5091450;27;45369;-72
2023/09/28 15:37:40;;;;;;;;;3.33;2.33;;;;;27.12;40.57;101364.91;5093719;27;46383;-72
2023/09/28 15:40:08;;;;;;;;;2.00;2.00;;;;;27.11;39.92;101358.63;5087814;27;46207;-72
2023/09/28 15:42:34;;;;;;;;;3.67;3.00;;;;;27.10;40.81;101355.03;5085986;27;45493;-72
2023/09/28 15:45:04;;;;;;;;;3.33;2.67;;;;;27.10;40.38;101360.50;5089993;27;45490;-74
2023/09/28 15:47:29;;;;;;;;;4.33;3.00;;;;;27.10;40.28;101349.59;5094899;27;45584;-72
2023/09/28 15:49:55;;;;;;;;;1.33;1.33;;;;;27.09;40.47;101347.03;5095694;27;46231;-74
2023/09/28 15:52:20;;;;;;;;;11.00;6.00;;;;;27.11;40.74;101347.72;5096276;27;45484;-74
2023/09/28 15:54:45;;;;;;;;;2.33;2.33;;;;;27.13;40.21;101350.28;5088305;27;45519;-72
2023/09/28 15:57:11;;;;;;;;;3.00;3.00;;;;;27.13;40.47;101356.56;5095026;27;45584;-74
2023/09/28 15:59:37;;;;;;;;;4.67;2.67;;;;;27.14;41.01;101354.69;5094351;27;52189;-74
2023/09/28 16:02:03;;;;;;;;;4.33;3.00;;;;;27.15;40.55;101354.53;5095185;27;45448;-74
2023/09/28 16:04:28;;;;;;;;;4.33;2.00;;;;;27.15;41.00;101350.94;5095390;27;46433;-74
2023/09/28 16:06:55;;;;;;;;;4.00;3.00;;;;;27.14;40.44;101344.63;5095404;27;45550;-74
2023/09/28 16:09:20;;;;;;;;;2.67;2.00;;;;;27.15;40.29;101359.09;5092506;27;45944;-73
2023/09/28 16:11:46;;;;;;;;;2.00;2.00;;;;;27.13;40.93;101344.81;5090727;27;45505;-74
2023/09/28 16:14:11;;;;;;;;;2.00;2.00;;;;;27.15;41.17;101353.66;5095175;27;45378;-73
2023/09/28 16:16:37;;;;;;;;;1.67;1.67;;;;;27.15;40.70;101350.94;5094704;27;45553;-72
2023/09/28 16:19:02;;;;;;;;;5.67;4.00;;;;;27.12;41.81;101346.69;5095399;27;46482;-70
2023/09/28 16:21:27;;;;;;;;;4.67;3.00;;;;;27.14;41.25;101360.13;5092019;27;45481;-71
2023/09/28 16:23:53;;;;;;;;;4.33;1.67;;;;;27.13;40.88;101355.72;5092384;27;45882;-71
2023/09/28 16:26:18;;;;;;;;;3.67;3.00;;;;;27.14;41.51;101357.41;5089740;27;45586;-72
2023/09/28 16:28:44;;;;;;;;;5.00;3.67;;;;;27.12;41.64;101343.97;5088964;27;46069;-72
2023/09/28 16:31:09;;;;;;;;;4.00;2.33;;;;;27.13;41.56;101347.56;5086124;27;45437;-71
2023/09/28 16:33:35;;;;;;;;;3.67;3.67;;;;;27.16;41.59;101349.91;5090808;27;45666;-73
2023/09/28 16:36:00;;;;;;;;;3.00;3.00;;;;;27.16;41.60;101350.75;5089713;27;45417;-70
2023/09/28 16:38:25;;;;;;;;;4.67;3.00;;;;;27.15;41.49;101359.97;5089643;27;46120;-72
2023/09/28 16:40:51;;;;;;;;;4.33;3.00;;;;;27.15;41.15;101353.66;5090716;27;61280;-72
2023/09/28 16:43:16;;;;;;;;;3.67;3.00;;;;;27.13;41.19;101347.56;5094904;27;45468;-71
2023/09/28 16:45:42;;;;;;;;;3.33;3.33;;;;;27.14;41.19;101354.69;5091146;27;52204;-73
2023/09/28 16:48:07;;;;;;;;;5.67;3.00;;;;;27.13;41.33;101353.84;5076135;27;58484;-72
2023/09/28 18:48:45;;;;;;;;;8.00;4.00;;;;;23.16;50.93;101350.34;5065362;27;45411;-73
2023/09/28 18:51:14;;;;;;;;;3.33;2.33;;;;;23.32;50.49;101343.41;5057703;28;45663;-74
2023/09/28 18:53:39;;;;;;;;;1.33;1.33;;;;;23.50;50.50;101338.06;5065052;28;45452;-74
2023/09/28 18:56:05;;;;;;;;;2.67;2.67;;;;;23.72;50.14;101333.16;5066984;27;45497;-72
2023/09/28 18:58:30;;;;;;;;;5.33;4.33;;;;;23.90;49.81;101339.44;5060697;28;46105;-73
2023/09/28 19:00:56;;;;;;;;;4.33;2.67;;;;;24.12;49.61;101347.25;5064045;28;45472;-73
2023/09/28 19:03:21;;;;;;;;;2.33;2.33;;;;;24.33;49.17;101341.47;5053566;28;49860;-71
2023/09/28 19:05:46;;;;;;;;;2.33;2.33;;;;;24.54;49.14;101337.50;5064477;28;45674;-70
2023/09/28 19:08:12;;;;;;;;;4.00;3.00;;;;;24.72;48.66;101340.16;5067419;28;54581;-70
2023/09/28 19:10:38;;;;;;;;;6.00;2.00;;;;;24.89;48.94;101338.38;5064222;28;45533;-72
2023/09/28 19:13:04;;;;;;;;;3.33;3.33;;;;;25.09;48.40;101338.97;5067274;28;45457;-72
2023/09/28 19:15:29;;;;;;;;;3.67;3.00;;;;;25.24;48.59;101332.91;5064135;27;45470;-73